Portada
METAR-TAF:

METAR-TAF

Aeropuertos :

Aeropuerto Internacional de Funafuti

Funafuti, Tuvalu

latitud: 08-31S, longitud: 179-13E, altitud: 1 m

Observación

El informe se hizo hace 40 minutos, a las 10:00 UTC
Viento 5 kt del este
Temperatura 29°C
Humedad 74%
Presión 1010 hPa
Visibilidad 10 km o más
Nubes dispersas a una altura de 2000 ft

METAR: NGFU 201000Z 09005KT 9999 SCT020 29/24 Q1010

Hora: 22:40 (10:40 UTC)

Pronóstico

El informe se hizo hace 5 horas y 22 minutos, a las 05:18 UTC
Pronóstico válido del 20 a las 06 UTC al 21 a las 06 UTC
Viento 8 kt del este
Visibilidad 10 km o más
Nubes dispersas a una altura de 1800 ft
Nubes dispersas a una altura de 10000 ft
Probabilidad 30% :
Temporalmente
del 20 a las 12 UTC al 20 a las 20 UTC
Visibilidad: 5000 m
Escasas nubes a una altura de 1800 ft, Cumulonimbus.
tormenta, lluvia

TAF: NGFU 200518Z 2006/2106 10008KT 9999 SCT018 SCT100 PROB30 TEMPO 2012/2020 5000 TSRA FEW018CB

Observaciones y pronósticos meteorológicos de más de 4000 aeropuertos (mensajes METAR y TAF).

Los puntos amarillos y rojos representan las estaciones disponibles.

Ponga el ratón en el punto deseado para ver el nombre de la estación.

Haga clic para ver las observaciones y los pronósticos meteorológicos.

Para cambiar el mapa : haga clic en los botones verdes con una cruz de color negro para hacer un zoom, en el botón verde con un guión para alejar o en las flechas verdes para mapas adyacentes.


METAR-TAF: